createdAt,value
2023-05-06T00:00:20.839Z,995.96
2023-05-06T00:01:21.526Z,995.98
2023-05-06T00:02:20.749Z,995.96
2023-05-06T00:03:20.714Z,995.94
2023-05-06T00:04:20.634Z,995.95
2023-05-06T00:05:20.470Z,995.92
2023-05-06T00:06:20.510Z,995.93
2023-05-06T00:07:20.420Z,995.93
2023-05-06T00:08:20.331Z,995.92
2023-05-06T00:09:20.295Z,995.91
2023-05-06T00:10:20.159Z,995.88
2023-05-06T00:11:20.190Z,995.88
2023-05-06T00:12:20.043Z,995.87
2023-05-06T00:13:20.118Z,995.88
2023-05-06T00:14:19.952Z,995.85
2023-05-06T00:15:19.917Z,995.88
2023-05-06T00:16:20.494Z,995.82
2023-05-06T00:17:19.725Z,995.86
2023-05-06T00:18:19.680Z,995.81
2023-05-06T00:19:19.636Z,995.87
2023-05-06T00:20:19.578Z,995.83
2023-05-06T00:21:19.473Z,995.81
2023-05-06T00:22:19.473Z,995.83
2023-05-06T00:23:19.451Z,995.84
2023-05-06T00:24:19.287Z,995.82
2023-05-06T00:25:19.206Z,995.84
2023-05-06T00:26:19.635Z,995.82
2023-05-06T00:27:19.151Z,995.80
2023-05-06T00:28:19.030Z,995.82
2023-05-06T00:29:19.080Z,995.81
2023-05-06T00:30:18.916Z,995.81
2023-05-06T00:31:18.937Z,995.83
2023-05-06T00:32:18.804Z,995.84
2023-05-06T00:33:18.700Z,995.85
2023-05-06T00:34:18.629Z,995.82
2023-05-06T00:35:18.763Z,995.83
2023-05-06T00:36:18.547Z,995.82
2023-05-06T00:37:18.446Z,995.79
2023-05-06T00:38:18.428Z,995.78
2023-05-06T00:39:18.379Z,995.80
2023-05-06T00:40:18.282Z,995.83
2023-05-06T00:41:18.295Z,995.78
2023-05-06T00:42:18.224Z,995.85
2023-05-06T00:43:18.124Z,995.82
2023-05-06T00:44:18.128Z,995.82
2023-05-06T00:45:18.005Z,995.84
2023-05-06T00:46:18.593Z,995.81
2023-05-06T00:47:17.862Z,995.79
2023-05-06T00:48:17.917Z,995.87
2023-05-06T00:49:17.691Z,995.84
2023-05-06T00:50:17.691Z,995.80
2023-05-06T00:51:17.580Z,995.80
2023-05-06T00:52:17.520Z,995.80
2023-05-06T00:53:17.531Z,995.78
2023-05-06T00:54:17.382Z,995.78
2023-05-06T00:55:17.394Z,995.82
2023-05-06T00:56:18.334Z,995.74
2023-05-06T00:57:17.217Z,995.76
2023-05-06T00:58:17.155Z,995.71
2023-05-06T00:59:17.087Z,995.74
2023-05-06T01:00:17.104Z,995.72
2023-05-06T01:01:17.057Z,995.75
2023-05-06T01:02:16.968Z,995.76
2023-05-06T01:03:16.902Z,995.77
2023-05-06T01:04:16.751Z,995.77
2023-05-06T01:05:16.797Z,995.78
2023-05-06T01:06:16.638Z,995.84
2023-05-06T01:07:16.580Z,995.80
2023-05-06T01:08:16.593Z,995.82
2023-05-06T01:09:16.489Z,995.85
2023-05-06T01:10:16.494Z,995.83
2023-05-06T01:11:16.311Z,995.82
2023-05-06T01:12:16.992Z,995.85
2023-05-06T01:13:16.326Z,995.87
2023-05-06T01:14:16.196Z,995.82
2023-05-06T01:15:16.110Z,995.82
2023-05-06T01:16:16.048Z,995.82
2023-05-06T01:17:16.008Z,995.86
2023-05-06T01:18:15.869Z,995.84
2023-05-06T01:19:15.809Z,995.87
2023-05-06T01:20:16.674Z,995.84
2023-05-06T01:21:16.484Z,995.85
2023-05-06T01:22:15.669Z,995.86
2023-05-06T01:23:15.592Z,995.82
2023-05-06T01:24:15.539Z,995.83
2023-05-06T01:25:16.470Z,995.86
2023-05-06T01:26:15.380Z,995.82
2023-05-06T01:27:15.324Z,995.80
2023-05-06T01:28:15.297Z,995.83
2023-05-06T01:29:15.267Z,995.82
2023-05-06T01:30:15.155Z,995.79
2023-05-06T01:31:15.127Z,995.76
2023-05-06T01:32:15.076Z,995.76
2023-05-06T01:33:15.025Z,995.79
2023-05-06T01:34:14.928Z,995.80
2023-05-06T01:35:14.896Z,995.81
2023-05-06T01:36:14.792Z,995.79
2023-05-06T01:37:14.727Z,995.81
2023-05-06T01:38:14.642Z,995.80
2023-05-06T01:39:14.578Z,995.83
2023-05-06T01:40:14.545Z,995.81
2023-05-06T01:41:14.476Z,995.81
2023-05-06T01:42:14.388Z,995.82
2023-05-06T01:43:14.386Z,995.80
2023-05-06T01:44:14.318Z,995.79
2023-05-06T01:45:14.174Z,995.79
2023-05-06T01:46:14.162Z,995.76
2023-05-06T01:47:14.075Z,995.75
2023-05-06T01:48:14.009Z,995.75
2023-05-06T01:49:13.971Z,995.74
2023-05-06T01:50:14.065Z,995.77
2023-05-06T01:51:13.809Z,995.82
2023-05-06T01:52:13.782Z,995.77
2023-05-06T01:53:13.765Z,995.80
2023-05-06T01:54:13.629Z,995.78
2023-05-06T01:55:13.569Z,995.79
2023-05-06T01:56:13.557Z,995.84
2023-05-06T01:57:13.462Z,995.81
2023-05-06T01:58:13.370Z,995.86
2023-05-06T01:59:13.493Z,995.84
2023-05-06T02:00:13.291Z,995.87
2023-05-06T02:01:13.244Z,995.86
2023-05-06T02:02:13.180Z,995.85
2023-05-06T02:03:13.148Z,995.89
2023-05-06T02:04:13.002Z,995.87
2023-05-06T02:05:12.969Z,995.85
2023-05-06T02:06:12.885Z,995.84
2023-05-06T02:07:12.904Z,995.90
2023-05-06T02:08:12.776Z,995.89
2023-05-06T02:09:12.691Z,995.86
2023-05-06T02:10:12.638Z,995.90
2023-05-06T02:11:12.567Z,995.89
2023-05-06T02:12:12.474Z,995.92
2023-05-06T02:13:12.501Z,995.92
2023-05-06T02:14:12.443Z,995.92
2023-05-06T02:15:12.338Z,995.91
2023-05-06T02:16:13.689Z,995.91
2023-05-06T02:17:12.182Z,995.91
2023-05-06T02:18:12.046Z,995.90
2023-05-06T02:19:12.100Z,995.91
2023-05-06T02:20:12.028Z,995.96
2023-05-06T02:21:11.916Z,995.92
2023-05-06T02:22:11.865Z,995.89
2023-05-06T02:23:11.826Z,995.87
2023-05-06T02:24:11.778Z,995.90
2023-05-06T02:25:11.832Z,995.92
2023-05-06T02:26:12.461Z,995.94
2023-05-06T02:27:11.533Z,995.95
2023-05-06T02:28:11.545Z,995.91
2023-05-06T02:29:11.467Z,995.91
2023-05-06T02:30:11.361Z,995.94
2023-05-06T02:31:11.329Z,995.93
2023-05-06T02:32:11.270Z,995.95
2023-05-06T02:33:11.167Z,995.93
2023-05-06T02:34:11.130Z,995.94
2023-05-06T02:35:11.220Z,995.96
2023-05-06T02:36:11.048Z,996.01
2023-05-06T02:37:10.926Z,996.05
2023-05-06T02:38:10.838Z,996.03
2023-05-06T02:39:10.794Z,996.01
2023-05-06T02:40:10.762Z,996.00
2023-05-06T02:41:10.672Z,996.02
2023-05-06T02:42:10.627Z,996.00
2023-05-06T02:43:10.578Z,995.95
2023-05-06T02:44:10.452Z,995.96
2023-05-06T02:45:10.749Z,995.94
2023-05-06T02:46:10.430Z,995.97
2023-05-06T02:47:10.292Z,995.94
2023-05-06T02:48:10.226Z,995.99
2023-05-06T02:49:10.207Z,996.00
2023-05-06T02:50:10.105Z,996.01
2023-05-06T02:51:10.952Z,996.01
2023-05-06T02:52:09.995Z,996.05
2023-05-06T02:53:09.895Z,996.03
2023-05-06T02:54:09.853Z,996.03
2023-05-06T02:55:09.998Z,996.09
2023-05-06T02:56:09.791Z,996.06
2023-05-06T02:57:09.661Z,996.06
2023-05-06T02:58:09.593Z,996.06
2023-05-06T02:59:09.672Z,996.07
2023-05-06T03:00:09.498Z,996.07
2023-05-06T03:01:09.443Z,996.10
2023-05-06T03:02:09.437Z,996.10
2023-05-06T03:03:09.350Z,996.09
2023-05-06T03:04:09.228Z,996.11
2023-05-06T03:05:09.342Z,996.15
2023-05-06T03:06:09.103Z,996.12
2023-05-06T03:07:09.032Z,996.16
2023-05-06T03:08:09.002Z,996.18
2023-05-06T03:09:08.874Z,996.15
2023-05-06T03:10:08.875Z,996.15
2023-05-06T03:11:08.806Z,996.13
2023-05-06T03:12:08.756Z,996.11
2023-05-06T03:13:08.714Z,996.14
2023-05-06T03:14:08.634Z,996.14
2023-05-06T03:15:08.859Z,996.17
2023-05-06T03:16:08.539Z,996.15
2023-05-06T03:17:08.439Z,996.21
2023-05-06T03:18:08.456Z,996.20
2023-05-06T03:19:08.302Z,996.24
2023-05-06T03:20:08.237Z,996.18
2023-05-06T03:21:08.150Z,996.23
2023-05-06T03:22:08.006Z,996.24
2023-05-06T03:23:08.967Z,996.23
2023-05-06T03:24:08.627Z,996.25
2023-05-06T03:25:08.234Z,996.23
2023-05-06T03:26:07.812Z,996.26
2023-05-06T03:27:07.765Z,996.29
2023-05-06T03:28:07.678Z,996.29
2023-05-06T03:29:07.584Z,996.30
2023-05-06T03:30:07.546Z,996.28
2023-05-06T03:31:07.469Z,996.30
2023-05-06T03:32:07.417Z,996.31
2023-05-06T03:33:07.419Z,996.29
2023-05-06T03:34:07.288Z,996.30
2023-05-06T03:35:07.364Z,996.24
2023-05-06T03:36:07.128Z,996.28
2023-05-06T03:37:07.127Z,996.26
2023-05-06T03:38:07.031Z,996.27
2023-05-06T03:39:06.954Z,996.26
2023-05-06T03:40:07.042Z,996.28
2023-05-06T03:41:06.886Z,996.25
2023-05-06T03:42:09.215Z,996.26
2023-05-06T03:43:06.747Z,996.28
2023-05-06T03:44:06.685Z,996.29
2023-05-06T03:45:06.595Z,996.30
2023-05-06T03:46:06.579Z,996.27
2023-05-06T03:47:06.464Z,996.32
2023-05-06T03:48:06.527Z,996.33
2023-05-06T03:49:06.375Z,996.34
2023-05-06T03:50:06.316Z,996.29
2023-05-06T03:51:06.202Z,996.31
2023-05-06T03:52:06.196Z,996.32
2023-05-06T03:53:06.123Z,996.32
2023-05-06T03:54:06.007Z,996.28
2023-05-06T03:55:05.977Z,996.35
2023-05-06T03:56:05.875Z,996.37
2023-05-06T03:57:05.853Z,996.33
2023-05-06T03:58:05.784Z,996.39
2023-05-06T03:59:07.470Z,996.42
2023-05-06T04:00:05.673Z,996.43
2023-05-06T04:01:05.544Z,996.41
2023-05-06T04:02:05.556Z,996.42
2023-05-06T04:03:05.555Z,996.39
2023-05-06T04:04:05.471Z,996.41
2023-05-06T04:05:05.331Z,996.42
2023-05-06T04:06:05.329Z,996.42
2023-05-06T04:07:05.208Z,996.44
2023-05-06T04:08:05.160Z,996.47
2023-05-06T04:09:05.071Z,996.46
2023-05-06T04:10:05.000Z,996.48
2023-05-06T04:11:04.964Z,996.49
2023-05-06T04:12:04.874Z,996.45
2023-05-06T04:13:04.922Z,996.47
2023-05-06T04:14:04.779Z,996.47
2023-05-06T04:15:04.711Z,996.45
2023-05-06T04:16:04.909Z,996.45
2023-05-06T04:17:04.583Z,996.44
2023-05-06T04:18:04.611Z,996.43
2023-05-06T04:19:06.341Z,996.41
2023-05-06T04:20:04.392Z,996.41
2023-05-06T04:21:04.341Z,996.40
2023-05-06T04:22:04.261Z,996.42
2023-05-06T04:23:04.170Z,996.47
2023-05-06T04:24:04.201Z,996.46
2023-05-06T04:25:04.964Z,996.46
2023-05-06T04:26:04.014Z,996.47
2023-05-06T04:27:04.495Z,996.47
2023-05-06T04:28:03.912Z,996.44
2023-05-06T04:29:03.967Z,996.47
2023-05-06T04:30:03.760Z,996.45
2023-05-06T04:31:03.660Z,996.45
2023-05-06T04:32:03.728Z,996.47
2023-05-06T04:33:03.660Z,996.48
2023-05-06T04:34:03.506Z,996.55
2023-05-06T04:35:03.452Z,996.53
2023-05-06T04:36:03.378Z,996.54
2023-05-06T04:37:03.952Z,996.54
2023-05-06T04:38:03.263Z,996.53
2023-05-06T04:39:03.204Z,996.53
2023-05-06T04:40:03.113Z,996.53
2023-05-06T04:41:03.663Z,996.53
2023-05-06T04:42:03.044Z,996.57
2023-05-06T04:43:02.990Z,996.56
2023-05-06T04:44:02.886Z,996.54
2023-05-06T04:45:02.769Z,996.51
2023-05-06T04:46:02.862Z,996.56
2023-05-06T04:47:02.699Z,996.59
2023-05-06T04:48:02.665Z,996.59
2023-05-06T04:49:02.585Z,996.60
2023-05-06T04:50:02.479Z,996.64
2023-05-06T04:51:02.451Z,996.60
2023-05-06T04:52:02.357Z,996.61
2023-05-06T04:53:02.314Z,996.64
2023-05-06T04:54:02.287Z,996.60
2023-05-06T04:55:02.180Z,996.61
2023-05-06T04:56:02.165Z,996.65
2023-05-06T04:57:02.047Z,996.68
2023-05-06T04:58:01.980Z,996.67
2023-05-06T04:59:01.968Z,996.66
2023-05-06T05:00:01.845Z,996.68
2023-05-06T05:01:01.827Z,996.64
2023-05-06T05:02:01.783Z,996.67
2023-05-06T05:03:01.836Z,996.70
2023-05-06T05:04:01.629Z,996.69
2023-05-06T05:05:01.602Z,996.74
2023-05-06T05:06:01.450Z,996.75
2023-05-06T05:07:02.179Z,996.76
2023-05-06T05:08:01.346Z,996.77
2023-05-06T05:09:01.400Z,996.85
2023-05-06T05:10:01.192Z,996.80
2023-05-06T05:11:01.163Z,996.78
2023-05-06T05:12:01.141Z,996.79
2023-05-06T05:13:01.106Z,996.76
2023-05-06T05:14:02.265Z,996.75
2023-05-06T05:15:00.979Z,996.73
2023-05-06T05:16:01.062Z,996.77
2023-05-06T05:17:00.793Z,996.78
2023-05-06T05:18:00.801Z,996.74
2023-05-06T05:19:03.022Z,996.78
2023-05-06T05:20:00.572Z,996.79
2023-05-06T05:21:00.556Z,996.72
2023-05-06T05:22:00.489Z,996.77
2023-05-06T05:23:00.481Z,996.75
2023-05-06T05:24:00.478Z,996.80
2023-05-06T05:25:00.279Z,996.82
2023-05-06T05:26:00.279Z,996.81
2023-05-06T05:27:00.242Z,996.84
2023-05-06T05:28:00.180Z,996.87
2023-05-06T05:29:00.055Z,996.85
2023-05-06T05:29:59.969Z,996.89
2023-05-06T05:30:59.916Z,996.92
2023-05-06T05:31:59.838Z,996.97
2023-05-06T05:32:59.842Z,996.95
2023-05-06T05:33:59.804Z,996.94
2023-05-06T05:34:59.648Z,996.95
2023-05-06T05:35:59.587Z,996.99
2023-05-06T05:36:59.580Z,996.99
2023-05-06T05:37:59.499Z,996.99
2023-05-06T05:38:59.426Z,997.00
2023-05-06T05:39:59.381Z,997.00
2023-05-06T05:40:59.300Z,996.90
2023-05-06T05:41:59.271Z,996.94
2023-05-06T05:42:59.116Z,996.92
2023-05-06T05:43:59.050Z,996.93
2023-05-06T05:44:59.100Z,996.92
2023-05-06T05:45:59.012Z,996.95
2023-05-06T05:46:58.894Z,996.92
2023-05-06T05:47:58.818Z,996.91
2023-05-06T05:48:58.811Z,996.95
2023-05-06T05:49:58.709Z,996.96
2023-05-06T05:50:58.610Z,997.00
2023-05-06T05:51:58.580Z,996.94
2023-05-06T05:52:58.558Z,996.97
2023-05-06T05:53:58.540Z,996.97
2023-05-06T05:54:58.450Z,996.92
2023-05-06T05:55:58.968Z,996.96
2023-05-06T05:56:58.255Z,996.97
2023-05-06T05:57:58.196Z,996.98
2023-05-06T05:58:58.198Z,996.96
2023-05-06T05:59:58.187Z,996.99
2023-05-06T06:00:58.014Z,997.02
2023-05-06T06:01:57.940Z,996.98
2023-05-06T06:02:57.886Z,996.98
2023-05-06T06:03:57.986Z,996.97
2023-05-06T06:04:59.194Z,996.98
2023-05-06T06:05:57.675Z,996.97
2023-05-06T06:06:57.662Z,996.98
2023-05-06T06:07:57.601Z,996.98
2023-05-06T06:08:58.111Z,996.95
2023-05-06T06:09:58.933Z,996.97
2023-05-06T06:10:57.445Z,996.95
2023-05-06T06:11:57.316Z,996.95
2023-05-06T06:12:57.300Z,996.94
2023-05-06T06:13:57.195Z,996.94
2023-05-06T06:14:57.137Z,996.92
2023-05-06T06:15:57.122Z,996.94
2023-05-06T06:16:57.015Z,996.91
2023-05-06T06:17:57.215Z,996.91
2023-05-06T06:18:56.915Z,996.91
2023-05-06T06:19:56.851Z,996.91
2023-05-06T06:20:56.767Z,996.88
2023-05-06T06:21:56.709Z,996.87
2023-05-06T06:22:56.667Z,996.90
2023-05-06T06:23:56.682Z,996.90
2023-05-06T06:24:56.587Z,996.95
2023-05-06T06:25:57.929Z,996.96
2023-05-06T06:26:56.422Z,996.96
2023-05-06T06:27:56.383Z,996.93
2023-05-06T06:28:56.995Z,996.96
2023-05-06T06:29:56.958Z,996.97
2023-05-06T06:30:56.165Z,996.96
2023-05-06T06:31:56.100Z,996.99
2023-05-06T06:32:56.080Z,996.96
2023-05-06T06:33:55.944Z,996.95
2023-05-06T06:34:55.896Z,996.95
2023-05-06T06:35:55.852Z,996.99
2023-05-06T06:36:55.765Z,996.97
2023-05-06T06:37:55.746Z,996.98
2023-05-06T06:38:55.741Z,997.04
2023-05-06T06:39:55.604Z,996.96
2023-05-06T06:40:55.585Z,997.00
2023-05-06T06:41:55.462Z,996.99
2023-05-06T06:42:55.426Z,997.03
2023-05-06T06:43:55.365Z,997.01
2023-05-06T06:44:55.311Z,996.99
2023-05-06T06:45:55.390Z,996.98
2023-05-06T06:46:55.155Z,996.99
2023-05-06T06:47:55.143Z,996.99
2023-05-06T06:48:55.018Z,996.95
2023-05-06T06:49:55.017Z,996.95
2023-05-06T06:50:54.884Z,996.99
2023-05-06T06:51:54.945Z,996.95
2023-05-06T06:52:54.809Z,996.97
2023-05-06T06:53:54.724Z,996.99
2023-05-06T06:54:55.968Z,996.97
2023-05-06T06:55:54.637Z,996.97
2023-05-06T06:56:55.930Z,996.97
2023-05-06T06:57:54.452Z,996.93
2023-05-06T06:58:54.404Z,996.90
2023-05-06T06:59:54.349Z,996.94
2023-05-06T07:00:54.419Z,996.96
2023-05-06T07:01:54.226Z,996.93
2023-05-06T07:02:54.336Z,996.90
2023-05-06T07:03:54.107Z,996.96
2023-05-06T07:04:54.129Z,996.93
2023-05-06T07:05:53.970Z,996.92
2023-05-06T07:06:53.896Z,996.89
2023-05-06T07:07:53.864Z,996.92
2023-05-06T07:08:53.825Z,996.97
2023-05-06T07:09:53.802Z,996.98
2023-05-06T07:10:53.682Z,996.96
2023-05-06T07:11:53.610Z,997.01
2023-05-06T07:12:53.618Z,997.02
2023-05-06T07:13:53.639Z,997.00
2023-05-06T07:14:53.451Z,997.02
2023-05-06T07:15:53.393Z,996.99
2023-05-06T07:16:53.980Z,996.93
2023-05-06T07:17:53.289Z,997.04
2023-05-06T07:18:53.206Z,996.96
2023-05-06T07:19:53.267Z,997.01
2023-05-06T07:20:53.107Z,997.01
2023-05-06T07:21:53.015Z,996.99
2023-05-06T07:22:52.941Z,997.02
2023-05-06T07:23:52.916Z,997.01
2023-05-06T07:24:52.853Z,996.99
2023-05-06T07:25:53.438Z,997.07
2023-05-06T07:26:52.775Z,997.03
2023-05-06T07:27:52.616Z,996.99
2023-05-06T07:28:52.623Z,997.02
2023-05-06T07:29:52.585Z,996.99
2023-05-06T07:30:52.563Z,997.00
2023-05-06T07:31:52.416Z,996.98
2023-05-06T07:32:52.392Z,996.97
2023-05-06T07:33:52.281Z,996.97
2023-05-06T07:34:52.204Z,997.03
2023-05-06T07:35:52.194Z,997.08
2023-05-06T07:36:52.103Z,997.06
2023-05-06T07:37:52.093Z,997.05
2023-05-06T07:38:52.024Z,997.09
2023-05-06T07:39:51.911Z,997.04
2023-05-06T07:40:52.461Z,997.07
2023-05-06T07:41:51.812Z,997.01
2023-05-06T07:42:51.756Z,997.02
2023-05-06T07:43:51.642Z,997.01
2023-05-06T07:44:51.579Z,997.04
2023-05-06T07:45:52.438Z,997.03
2023-05-06T07:46:51.553Z,997.00
2023-05-06T07:47:51.600Z,996.99
2023-05-06T07:48:51.386Z,996.97
2023-05-06T07:49:52.206Z,996.99
2023-05-06T07:50:51.272Z,996.98
2023-05-06T07:51:51.218Z,997.00
2023-05-06T07:52:51.187Z,997.00
2023-05-06T07:53:51.085Z,996.95
2023-05-06T07:54:50.995Z,996.97
2023-05-06T07:55:50.962Z,996.93
2023-05-06T07:56:50.879Z,996.96
2023-05-06T07:57:50.811Z,996.97
2023-05-06T07:58:50.799Z,996.94
2023-05-06T07:59:50.725Z,996.99
2023-05-06T08:00:50.626Z,997.02
2023-05-06T08:01:51.620Z,997.03
2023-05-06T08:02:50.591Z,997.05
2023-05-06T08:03:50.664Z,997.05
2023-05-06T08:04:51.746Z,997.06
2023-05-06T08:05:50.343Z,997.08
2023-05-06T08:06:50.294Z,997.04
2023-05-06T08:07:50.202Z,997.09
2023-05-06T08:08:50.185Z,997.11
2023-05-06T08:09:50.081Z,997.06
2023-05-06T08:10:50.059Z,997.10
2023-05-06T08:11:50.041Z,997.04
2023-05-06T08:12:49.923Z,997.15
2023-05-06T08:13:49.873Z,997.14
2023-05-06T08:14:49.789Z,997.09
2023-05-06T08:15:49.750Z,997.19
2023-05-06T08:16:49.904Z,997.15
2023-05-06T08:17:49.714Z,997.11
2023-05-06T08:18:49.575Z,997.14
2023-05-06T08:19:49.483Z,997.14
2023-05-06T08:20:49.496Z,997.09
2023-05-06T08:21:49.971Z,997.18
2023-05-06T08:22:49.460Z,997.12
2023-05-06T08:23:49.241Z,997.24
2023-05-06T08:24:49.184Z,997.13
2023-05-06T08:25:49.673Z,997.14
2023-05-06T08:26:49.660Z,997.13
2023-05-06T08:27:48.991Z,997.14
2023-05-06T08:28:48.996Z,997.15
2023-05-06T08:29:48.904Z,997.20
2023-05-06T08:30:48.862Z,997.14
2023-05-06T08:31:48.975Z,997.06
2023-05-06T08:32:48.709Z,997.08
2023-05-06T08:33:48.639Z,997.11
2023-05-06T08:34:48.611Z,997.15
2023-05-06T08:35:48.537Z,997.16
2023-05-06T08:36:48.493Z,997.16
2023-05-06T08:37:48.427Z,997.19
2023-05-06T08:38:48.333Z,997.16
2023-05-06T08:39:48.347Z,997.16
2023-05-06T08:40:48.222Z,997.19
2023-05-06T08:41:48.185Z,997.12
2023-05-06T08:42:48.072Z,997.20
2023-05-06T08:43:48.069Z,997.21
2023-05-06T08:44:47.969Z,997.12
2023-05-06T08:45:47.941Z,997.14
2023-05-06T08:46:47.874Z,997.13
2023-05-06T08:47:47.932Z,997.07
2023-05-06T08:48:47.727Z,997.12
2023-05-06T08:49:47.664Z,997.12
2023-05-06T08:50:48.970Z,997.11
2023-05-06T08:51:47.625Z,997.12
2023-05-06T08:52:47.484Z,997.09
2023-05-06T08:53:47.396Z,997.15
2023-05-06T08:54:47.496Z,997.16
2023-05-06T08:55:47.309Z,997.21
2023-05-06T08:56:47.240Z,997.20
2023-05-06T08:57:47.215Z,997.15
2023-05-06T08:58:47.945Z,997.24
2023-05-06T08:59:47.140Z,997.22
2023-05-06T09:00:47.087Z,997.21
2023-05-06T09:01:48.127Z,997.22
2023-05-06T09:02:46.924Z,997.12
2023-05-06T09:03:46.864Z,997.10
2023-05-06T09:04:47.460Z,997.13
2023-05-06T09:05:46.787Z,997.13
2023-05-06T09:06:46.640Z,997.12
2023-05-06T09:07:46.605Z,997.13
2023-05-06T09:08:46.506Z,997.12
2023-05-06T09:09:46.518Z,997.16
2023-05-06T09:10:46.420Z,997.12
2023-05-06T09:11:46.371Z,997.11
2023-05-06T09:12:46.291Z,997.13
2023-05-06T09:13:46.184Z,997.04
2023-05-06T09:14:46.151Z,997.17
2023-05-06T09:15:46.133Z,997.15
2023-05-06T09:16:46.233Z,997.13
2023-05-06T09:17:46.032Z,997.10
2023-05-06T09:18:45.973Z,997.11
2023-05-06T09:19:45.854Z,997.09
2023-05-06T09:20:45.847Z,997.05
2023-05-06T09:21:45.770Z,997.08
2023-05-06T09:22:45.730Z,997.10
2023-05-06T09:23:45.762Z,997.09
2023-05-06T09:24:45.578Z,997.09
2023-05-06T09:25:45.520Z,997.14
2023-05-06T09:26:45.502Z,997.07
2023-05-06T09:27:45.390Z,997.11
2023-05-06T09:28:45.328Z,997.13
2023-05-06T09:29:45.262Z,997.11
2023-05-06T09:30:45.271Z,997.13
2023-05-06T09:31:45.115Z,997.12
2023-05-06T09:32:45.073Z,997.18
2023-05-06T09:33:45.043Z,997.12
2023-05-06T09:34:44.993Z,997.20
2023-05-06T09:35:44.874Z,997.20
2023-05-06T09:36:44.820Z,997.15
2023-05-06T09:37:44.746Z,997.23
2023-05-06T09:38:44.737Z,997.10
2023-05-06T09:39:44.685Z,997.20
2023-05-06T09:40:44.660Z,997.12
2023-05-06T09:41:44.599Z,997.12
2023-05-06T09:42:44.483Z,997.06
2023-05-06T09:43:44.469Z,997.02
2023-05-06T09:44:44.320Z,997.03
2023-05-06T09:45:44.289Z,996.98
2023-05-06T09:46:44.227Z,997.00
2023-05-06T09:47:44.276Z,997.03
2023-05-06T09:48:44.086Z,996.95
2023-05-06T09:49:44.054Z,996.92
2023-05-06T09:50:44.681Z,996.94
2023-05-06T09:51:44.513Z,996.96
2023-05-06T09:52:43.840Z,996.87
2023-05-06T09:53:43.809Z,996.88
2023-05-06T09:54:43.747Z,996.89
2023-05-06T09:55:43.692Z,996.88
2023-05-06T09:56:43.638Z,996.85
2023-05-06T09:57:43.698Z,996.87
2023-05-06T09:58:43.518Z,996.90
2023-05-06T09:59:43.448Z,996.95
2023-05-06T10:00:43.379Z,996.97
2023-05-06T10:01:43.359Z,996.94
2023-05-06T10:02:43.406Z,996.93
2023-05-06T10:03:44.072Z,996.93
2023-05-06T10:04:43.311Z,996.94
2023-05-06T10:05:43.060Z,996.97
2023-05-06T10:06:43.038Z,996.97
2023-05-06T10:07:42.929Z,997.01
2023-05-06T10:08:42.881Z,997.00
2023-05-06T10:09:42.872Z,996.90
2023-05-06T10:10:42.756Z,996.93
2023-05-06T10:11:42.684Z,996.94
2023-05-06T10:12:42.684Z,996.87
2023-05-06T10:13:42.619Z,996.85
2023-05-06T10:14:42.490Z,996.86
2023-05-06T10:15:42.497Z,996.88
2023-05-06T10:16:42.540Z,996.90
2023-05-06T10:17:42.381Z,996.90
2023-05-06T10:18:42.290Z,996.92
2023-05-06T10:19:42.254Z,996.86
2023-05-06T10:20:42.291Z,996.90
2023-05-06T10:21:42.127Z,996.90
2023-05-06T10:22:42.054Z,996.88
2023-05-06T10:23:42.006Z,996.90
2023-05-06T10:24:41.895Z,996.82
2023-05-06T10:25:41.884Z,996.87
2023-05-06T10:26:41.838Z,996.89
2023-05-06T10:27:41.763Z,996.89
2023-05-06T10:28:41.674Z,996.87
2023-05-06T10:29:41.612Z,996.89
2023-05-06T10:30:41.578Z,996.91
2023-05-06T10:31:42.487Z,996.88
2023-05-06T10:32:42.005Z,996.86
2023-05-06T10:33:42.443Z,996.88
2023-05-06T10:34:41.340Z,996.87
2023-05-06T10:35:41.285Z,996.81
2023-05-06T10:36:41.242Z,996.84
2023-05-06T10:37:41.152Z,996.83
2023-05-06T10:38:41.081Z,996.85
2023-05-06T10:39:42.128Z,996.84
2023-05-06T10:40:40.958Z,996.80
2023-05-06T10:41:40.873Z,996.74
2023-05-06T10:42:40.889Z,996.77
2023-05-06T10:43:40.814Z,996.75
2023-05-06T10:44:40.701Z,996.77
2023-05-06T10:45:40.683Z,996.73
2023-05-06T10:46:40.602Z,996.76
2023-05-06T10:47:40.563Z,996.74
2023-05-06T10:48:40.484Z,996.74
2023-05-06T10:49:40.389Z,996.73
2023-05-06T10:50:40.337Z,996.76
2023-05-06T10:51:40.241Z,996.71
2023-05-06T10:52:40.213Z,996.72
2023-05-06T10:53:41.669Z,996.70
2023-05-06T10:54:40.065Z,996.72
2023-05-06T10:55:40.102Z,996.66
2023-05-06T10:56:40.014Z,996.67
2023-05-06T10:57:39.917Z,996.65
2023-05-06T10:58:39.847Z,996.67
2023-05-06T10:59:39.783Z,996.67
2023-05-06T11:00:39.744Z,996.68
2023-05-06T11:01:39.780Z,996.75
2023-05-06T11:02:39.733Z,996.74
2023-05-06T11:03:39.628Z,996.70
2023-05-06T11:04:39.474Z,996.61
2023-05-06T11:05:39.480Z,996.58
2023-05-06T11:06:39.391Z,996.64
2023-05-06T11:07:39.366Z,996.63
2023-05-06T11:08:39.272Z,996.63
2023-05-06T11:09:39.242Z,996.61
2023-05-06T11:10:39.087Z,996.55
2023-05-06T11:11:39.094Z,996.53
2023-05-06T11:12:39.017Z,996.53
2023-05-06T11:13:38.917Z,996.56
2023-05-06T11:14:38.869Z,996.56
2023-05-06T11:15:38.812Z,996.61
2023-05-06T11:16:38.956Z,996.57
2023-05-06T11:17:38.757Z,996.60
2023-05-06T11:18:38.705Z,996.60
2023-05-06T11:19:38.597Z,996.57
2023-05-06T11:20:38.560Z,996.55
2023-05-06T11:21:38.466Z,996.52
2023-05-06T11:22:38.415Z,996.54
2023-05-06T11:23:38.352Z,996.57
2023-05-06T11:24:38.400Z,996.51
2023-05-06T11:25:38.203Z,996.52
2023-05-06T11:26:38.181Z,996.59
2023-05-06T11:27:38.119Z,996.58
2023-05-06T11:28:37.995Z,996.60
2023-05-06T11:29:38.056Z,996.59
2023-05-06T11:30:37.938Z,996.56
2023-05-06T11:31:37.902Z,996.60
2023-05-06T11:32:37.829Z,996.57
2023-05-06T11:33:37.739Z,996.54
2023-05-06T11:34:37.686Z,996.53
2023-05-06T11:35:37.591Z,996.53
2023-05-06T11:36:37.530Z,996.50
2023-05-06T11:37:37.506Z,996.50
2023-05-06T11:38:37.444Z,996.47
2023-05-06T11:39:40.788Z,996.49
2023-05-06T11:40:37.308Z,996.49
2023-05-06T11:41:37.261Z,996.48
2023-05-06T11:42:37.221Z,996.46
2023-05-06T11:43:37.187Z,996.49
2023-05-06T11:44:37.083Z,996.47
2023-05-06T11:45:37.051Z,996.51
2023-05-06T11:46:36.917Z,996.50
2023-05-06T11:47:36.899Z,996.49
2023-05-06T11:48:36.829Z,996.52
2023-05-06T11:49:36.977Z,996.53
2023-05-06T11:50:36.779Z,996.53
2023-05-06T11:51:36.614Z,996.52
2023-05-06T11:52:36.642Z,996.55
2023-05-06T11:53:36.574Z,996.57
2023-05-06T11:54:36.513Z,996.56
2023-05-06T11:55:36.503Z,996.51
2023-05-06T11:56:36.338Z,996.55
2023-05-06T11:57:36.240Z,996.52
2023-05-06T11:58:36.188Z,996.54
2023-05-06T11:59:36.178Z,996.47
2023-05-06T12:00:37.200Z,996.55
2023-05-06T12:01:36.989Z,996.51
2023-05-06T12:02:36.076Z,996.54
2023-05-06T12:03:36.111Z,996.53
2023-05-06T12:04:35.947Z,996.54
2023-05-06T12:05:35.787Z,996.57
2023-05-06T12:06:37.038Z,996.54
2023-05-06T12:07:35.713Z,996.56
2023-05-06T12:08:35.689Z,996.55
2023-05-06T12:09:37.105Z,996.53
2023-05-06T12:10:35.501Z,996.54
2023-05-06T12:11:35.387Z,996.48
2023-05-06T12:12:35.379Z,996.50
2023-05-06T12:13:35.397Z,996.46
2023-05-06T12:14:37.647Z,996.48
2023-05-06T12:15:35.190Z,996.48
2023-05-06T12:16:35.090Z,996.45
2023-05-06T12:17:35.133Z,996.50
2023-05-06T12:18:35.024Z,996.52
2023-05-06T12:19:34.999Z,996.50
2023-05-06T12:20:34.876Z,996.47
2023-05-06T12:21:34.817Z,996.43
2023-05-06T12:22:34.712Z,996.44
2023-05-06T12:23:34.724Z,996.39
2023-05-06T12:24:34.647Z,996.48
2023-05-06T12:25:34.598Z,996.43
2023-05-06T12:26:34.446Z,996.50
2023-05-06T12:27:34.485Z,996.41